Current Weather

New Braunfels Ntl

New Braunfels, Texas (KBAZ)

Report from: Friday, March 1, 2024 1:21 PM CST
Current time: Friday, March 1, 2024 1:57 PM CST

Nearby weather – Weather history – Daily summaries
Weather forecast

Temperature15.0°C (59.0°F)
Dew point11.7°C (53.1°F)
Winds 5 kts (2.6 m/s, 5.8 mph) South (190°)
Visibility9 mi. (14.5 km)
Clouds Scattered clouds 1,100 ft. (335 m)
Altimeter30.08 in.Hg (1019 mB)
Relative humidity81 %
Density altitude11 ft. (3 m)
Remarks System requires maintenance
Automated weather observing station with precipitation discriminator
Flight conditions Visual Meteorological Conditions
Raw dataKBAZ 011921Z 19005KT 9SM SCT011 15/12 A3008 RMK AO2 T01500117 $
An unhandled exception has occurred. See browser dev tools for details. Reload 🗙